createdAt,value
2023-01-15T00:01:07.532Z,102230.66
2023-01-15T00:04:13.963Z,102205.88
2023-01-15T00:07:18.182Z,102217.03
2023-01-15T00:10:22.648Z,102216.88
2023-01-15T00:13:26.441Z,102197.97
2023-01-15T00:16:31.196Z,102202.06
2023-01-15T00:19:35.071Z,102157.75
2023-01-15T00:22:39.015Z,102164.66
2023-01-15T00:26:01.454Z,102174.72
2023-01-15T00:29:05.891Z,102150.63
2023-01-15T00:32:09.963Z,102177.97
2023-01-15T00:35:16.464Z,102170.56
2023-01-15T00:38:20.776Z,102161.34
2023-01-15T00:41:25.142Z,102154.19
2023-01-15T00:44:29.075Z,102159.94
2023-01-15T00:47:33.384Z,102127.38
2023-01-15T00:50:37.125Z,102093.50
2023-01-15T00:53:41.318Z,102151.63
2023-01-15T00:56:46.088Z,102121.53
2023-01-15T00:59:50.269Z,102096.97
2023-01-15T01:02:54.039Z,102114.78
2023-01-15T01:06:03.098Z,102118.38
2023-01-15T01:09:07.211Z,102118.59
2023-01-15T01:12:11.860Z,102108.28
2023-01-15T01:15:15.627Z,102128.06
2023-01-15T01:18:20.148Z,102115.50
2023-01-15T01:21:24.082Z,102129.78
2023-01-15T01:24:28.831Z,102123.69
2023-01-15T01:27:32.978Z,102130.31
2023-01-15T01:30:39.458Z,102110.34
2023-01-15T01:33:43.257Z,102118.41
2023-01-15T01:36:47.713Z,102135.41
2023-01-15T01:39:51.509Z,102088.25
2023-01-15T01:42:56.153Z,102103.56
2023-01-15T01:46:00.677Z,102086.06
2023-01-15T01:49:10.478Z,102080.69
2023-01-15T01:52:22.230Z,102092.25
2023-01-15T01:55:28.842Z,102069.63
2023-01-15T01:58:34.084Z,102046.69
2023-01-15T02:01:40.199Z,102059.28
2023-01-15T02:04:44.429Z,102055.94
2023-01-15T02:07:49.027Z,102060.13
2023-01-15T02:10:57.830Z,102049.41
2023-01-15T02:14:37.078Z,102056.34
2023-01-15T02:17:54.626Z,102062.13
2023-01-15T02:21:22.523Z,102051.28
2023-01-15T02:24:55.829Z,102044.56
2023-01-15T02:28:32.566Z,102045.56
2023-01-15T02:31:52.034Z,102009.63
2023-01-15T02:35:07.483Z,102029.31
2023-01-15T02:38:16.963Z,102001.72
2023-01-15T02:41:29.854Z,101998.59
2023-01-15T02:44:37.410Z,102000.69
2023-01-15T02:47:43.998Z,101991.59
2023-01-15T02:51:00.145Z,101993.31
2023-01-15T02:54:11.910Z,101969.88
2023-01-15T02:57:17.647Z,101962.97
2023-01-15T03:00:33.731Z,101956.53
2023-01-15T03:04:00.237Z,101967.91
2023-01-15T03:07:14.227Z,101955.41
2023-01-15T03:10:19.763Z,101953.09
2023-01-15T03:13:39.450Z,101940.44
2023-01-15T03:16:57.932Z,101895.25
2023-01-15T03:20:18.689Z,101912.00
2023-01-15T03:23:28.192Z,101919.66
2023-01-15T03:26:32.310Z,101906.81
2023-01-15T03:29:41.891Z,101879.78
2023-01-15T03:32:46.794Z,101904.34
2023-01-15T03:35:59.863Z,101914.47
2023-01-15T03:39:17.587Z,101901.28
2023-01-15T03:43:20.277Z,101886.66
2023-01-15T03:46:42.427Z,101886.09
2023-01-15T03:50:06.576Z,101859.03
2023-01-15T03:53:24.569Z,101867.69
2023-01-15T03:56:43.993Z,101855.41
2023-01-15T04:00:14.923Z,101833.22
2023-01-15T04:03:27.429Z,101835.31
2023-01-15T04:06:35.512Z,101830.09
2023-01-15T04:09:41.313Z,101825.88
2023-01-15T04:12:48.606Z,101804.00
2023-01-15T04:15:53.559Z,101805.09
2023-01-15T04:18:58.743Z,101814.38
2023-01-15T04:22:03.572Z,101717.38
2023-01-15T04:25:08.495Z,101715.84
2023-01-15T04:28:30.554Z,101813.03
2023-01-15T04:31:36.846Z,101781.53
2023-01-15T04:34:40.733Z,101791.78
2023-01-15T04:37:45.184Z,101798.91
2023-01-15T04:41:07.333Z,101785.22
2023-01-15T04:44:11.436Z,101764.66
2023-01-15T04:47:15.567Z,101772.81
2023-01-15T04:50:19.574Z,101728.13
2023-01-15T04:53:23.689Z,101770.97
2023-01-15T04:56:27.669Z,101738.09
2023-01-15T04:59:31.388Z,101761.81
2023-01-15T05:02:35.550Z,101730.81
2023-01-15T05:05:39.380Z,101737.56
2023-01-15T05:08:43.465Z,101746.28
2023-01-15T05:11:47.244Z,101740.94
2023-01-15T05:14:51.277Z,101729.72
2023-01-15T05:17:55.443Z,101711.44
2023-01-15T05:20:59.685Z,101732.91
2023-01-15T05:24:05.876Z,101755.25
2023-01-15T05:27:09.880Z,101749.50
2023-01-15T05:30:15.134Z,101745.19
2023-01-15T05:33:20.527Z,101727.00
2023-01-15T05:36:27.201Z,101728.09
2023-01-15T05:39:31.161Z,101728.22
2023-01-15T05:42:35.007Z,101695.50
2023-01-15T05:45:39.388Z,101745.84
2023-01-15T05:48:43.333Z,101713.06
2023-01-15T05:51:48.082Z,101738.97
2023-01-15T05:54:52.220Z,101713.44
2023-01-15T05:57:56.224Z,101702.59
2023-01-15T06:02:15.303Z,101735.63
2023-01-15T06:05:21.147Z,101724.97
2023-01-15T06:08:25.576Z,101697.53
2023-01-15T06:11:29.859Z,101706.69
2023-01-15T06:14:33.866Z,101719.66
2023-01-15T06:17:37.975Z,101719.34
2023-01-15T06:20:43.285Z,101702.41
2023-01-15T06:23:47.770Z,101726.50
2023-01-15T06:26:51.742Z,101674.66
2023-01-15T06:29:57.052Z,101680.69
2023-01-15T06:33:00.748Z,101720.94
2023-01-15T06:36:09.866Z,101721.34
2023-01-15T06:39:13.926Z,101705.38
2023-01-15T06:42:36.452Z,101701.69
2023-01-15T06:46:01.094Z,101722.00
2023-01-15T06:49:05.293Z,101687.34
2023-01-15T06:52:09.345Z,101682.91
2023-01-15T06:55:13.637Z,101685.31
2023-01-15T06:58:17.616Z,101684.31
2023-01-15T07:01:21.950Z,101695.03
2023-01-15T07:04:26.491Z,101703.41
2023-01-15T07:07:30.662Z,101715.44
2023-01-15T07:10:37.692Z,101685.66
2023-01-15T07:13:41.778Z,101694.22
2023-01-15T07:16:45.770Z,101683.66
2023-01-15T07:19:49.929Z,101693.84
2023-01-15T07:22:54.031Z,101690.66
2023-01-15T07:25:58.157Z,101698.88
2023-01-15T07:29:02.319Z,101682.44
2023-01-15T07:32:06.795Z,101703.44
2023-01-15T07:35:11.194Z,101685.97
2023-01-15T07:38:15.366Z,101704.53
2023-01-15T07:41:38.076Z,101693.53
2023-01-15T07:45:00.407Z,101686.75
2023-01-15T07:48:22.931Z,101705.66
2023-01-15T07:51:27.012Z,101698.16
2023-01-15T07:54:30.924Z,101703.00
2023-01-15T07:57:35.143Z,101704.38
2023-01-15T08:00:41.215Z,101684.78
2023-01-15T08:03:45.952Z,101709.50
2023-01-15T08:06:53.365Z,101631.59
2023-01-15T08:09:57.683Z,101656.31
2023-01-15T08:13:20.117Z,101693.44
2023-01-15T08:16:24.193Z,101687.13
2023-01-15T08:19:30.758Z,101695.19
2023-01-15T08:22:34.822Z,101661.91
2023-01-15T08:25:41.135Z,101704.34
2023-01-15T08:28:45.168Z,101699.50
2023-01-15T08:31:49.535Z,101697.47
2023-01-15T08:34:53.660Z,101709.63
2023-01-15T08:37:57.582Z,101704.59
2023-01-15T08:41:04.201Z,101655.91
2023-01-15T08:44:08.550Z,101711.25
2023-01-15T08:47:12.708Z,101697.44
2023-01-15T08:50:16.689Z,101701.47
2023-01-15T08:53:21.689Z,101712.09
2023-01-15T08:56:25.586Z,101685.66
2023-01-15T08:59:29.741Z,101693.78
2023-01-15T09:02:33.776Z,101681.84
2023-01-15T09:05:39.024Z,101714.84
2023-01-15T09:08:43.276Z,101651.19
2023-01-15T09:11:48.754Z,101693.41
2023-01-15T09:14:57.749Z,101709.06
2023-01-15T09:18:07.766Z,101719.88
2023-01-15T09:21:11.987Z,101675.88
2023-01-15T09:24:17.138Z,101722.91
2023-01-15T09:27:21.149Z,101712.69
2023-01-15T09:30:25.353Z,101714.16
2023-01-15T09:33:29.459Z,101696.88
2023-01-15T09:36:36.024Z,101699.47
2023-01-15T09:39:40.370Z,101699.09
2023-01-15T09:42:47.413Z,101727.44
2023-01-15T09:45:58.255Z,101712.13
2023-01-15T09:49:11.402Z,101722.31
2023-01-15T09:52:23.860Z,101719.03
2023-01-15T09:55:38.041Z,101701.50
2023-01-15T09:58:42.670Z,101703.06
2023-01-15T10:01:52.041Z,101683.78
2023-01-15T10:05:12.511Z,101725.00
2023-01-15T10:08:33.217Z,101718.91
2023-01-15T10:12:21.304Z,101706.28
2023-01-15T10:15:37.796Z,101727.50
2023-01-15T10:18:44.401Z,101702.47
2023-01-15T10:22:22.864Z,101723.13
2023-01-15T10:25:32.795Z,101710.84
2023-01-15T10:28:58.819Z,101692.94
2023-01-15T10:32:26.204Z,101684.47
2023-01-15T10:35:48.522Z,101696.16
2023-01-15T10:39:21.092Z,101722.16
2023-01-15T10:42:50.773Z,101699.13
2023-01-15T10:46:00.168Z,101706.00
2023-01-15T10:49:19.409Z,101716.72
2023-01-15T10:52:48.361Z,101713.34
2023-01-15T10:55:56.541Z,101674.31
2023-01-15T10:59:18.754Z,101722.31
2023-01-15T11:02:40.905Z,101709.59
2023-01-15T11:05:48.674Z,101730.13
2023-01-15T11:09:11.439Z,101718.59
2023-01-15T11:12:27.008Z,101699.63
2023-01-15T11:15:50.288Z,101714.47
2023-01-15T11:19:14.131Z,101689.75
2023-01-15T11:22:20.148Z,101700.97
2023-01-15T11:25:30.792Z,101689.28
2023-01-15T11:28:47.086Z,101689.47
2023-01-15T11:31:52.477Z,101701.38
2023-01-15T11:35:15.028Z,101653.78
2023-01-15T11:38:23.656Z,101697.75
2023-01-15T11:41:47.464Z,101708.19
2023-01-15T11:45:17.484Z,101693.31
2023-01-15T11:48:43.258Z,101696.63
2023-01-15T11:51:50.417Z,101677.59
2023-01-15T11:54:56.728Z,101700.38
2023-01-15T11:58:02.698Z,101698.56
2023-01-15T12:01:06.846Z,101688.69
2023-01-15T12:04:47.811Z,101690.13
2023-01-15T12:07:55.770Z,101708.84
2023-01-15T12:11:25.261Z,101714.84
2023-01-15T12:14:40.320Z,101527.47
2023-01-15T12:18:22.600Z,101711.47
2023-01-15T12:21:47.885Z,101727.13
2023-01-15T12:25:20.503Z,101718.34
2023-01-15T12:28:31.319Z,101709.13
2023-01-15T12:31:43.051Z,101718.28
2023-01-15T12:35:25.238Z,101702.38
2023-01-15T12:38:45.363Z,101702.63
2023-01-15T12:42:14.638Z,101646.75
2023-01-15T12:45:24.536Z,101686.94
2023-01-15T12:48:40.103Z,101705.81
2023-01-15T12:51:56.424Z,101710.59
2023-01-15T12:55:25.945Z,101663.97
2023-01-15T12:58:52.231Z,101699.44
2023-01-15T13:02:29.406Z,101699.88
2023-01-15T13:05:41.199Z,101678.69
2023-01-15T13:09:09.252Z,101699.34
2023-01-15T13:12:15.385Z,101686.06
2023-01-15T13:15:22.711Z,101683.38
2023-01-15T13:18:45.480Z,101697.78
2023-01-15T13:21:53.720Z,101683.59
2023-01-15T13:25:09.623Z,101705.22
2023-01-15T13:28:20.629Z,101683.03
2023-01-15T13:31:49.911Z,101711.09
2023-01-15T13:35:12.804Z,101697.97
2023-01-15T13:38:21.874Z,101643.44
2023-01-15T13:41:48.372Z,101663.84
2023-01-15T13:44:54.912Z,101637.75
2023-01-15T13:48:05.292Z,101681.00
2023-01-15T13:51:44.054Z,101687.13
2023-01-15T13:54:48.210Z,101675.31
2023-01-15T13:57:52.171Z,101664.47
2023-01-15T14:01:23.347Z,101674.66
2023-01-15T14:04:54.304Z,101669.91
2023-01-15T14:07:59.436Z,101665.81
2023-01-15T14:11:04.084Z,101670.56
2023-01-15T14:14:17.380Z,101678.47
2023-01-15T14:17:43.551Z,101652.91
2023-01-15T14:20:56.394Z,101690.81
2023-01-15T14:24:37.968Z,101626.50
2023-01-15T14:28:02.933Z,101657.19
2023-01-15T14:31:41.083Z,101656.56
2023-01-15T14:34:45.575Z,101667.00
2023-01-15T14:38:06.760Z,101657.19
2023-01-15T14:41:13.299Z,101638.47
2023-01-15T14:44:17.338Z,101666.97
2023-01-15T14:47:50.258Z,101609.28
2023-01-15T14:50:54.996Z,101645.94
2023-01-15T14:54:02.316Z,101648.91
2023-01-15T14:57:09.899Z,101639.16
2023-01-15T15:00:19.596Z,101647.25
2023-01-15T15:03:38.048Z,101628.38
2023-01-15T15:06:56.047Z,101635.22
2023-01-15T15:10:04.361Z,101635.53
2023-01-15T15:13:31.302Z,101636.84
2023-01-15T15:16:42.132Z,101618.28
2023-01-15T15:19:54.598Z,101599.97
2023-01-15T15:23:42.951Z,101628.44
2023-01-15T15:26:46.948Z,101628.22
2023-01-15T15:29:51.973Z,101617.38
2023-01-15T15:32:57.926Z,101633.25
2023-01-15T15:36:02.687Z,101638.09
2023-01-15T15:39:22.175Z,101583.44
2023-01-15T15:42:52.149Z,101625.03
2023-01-15T15:46:16.515Z,101602.47
2023-01-15T15:49:23.158Z,101622.75
2023-01-15T15:52:28.713Z,101617.31
2023-01-15T15:55:42.194Z,101630.47
2023-01-15T15:58:47.224Z,101640.66
2023-01-15T16:01:51.446Z,101611.44
2023-01-15T16:04:59.732Z,101626.22
2023-01-15T16:08:17.113Z,101622.59
2023-01-15T16:11:23.357Z,101621.69
2023-01-15T16:14:27.830Z,101571.31
2023-01-15T16:17:33.109Z,101596.66
2023-01-15T16:20:37.314Z,101622.38
2023-01-15T16:23:43.325Z,101614.97
2023-01-15T16:26:58.307Z,101619.75
2023-01-15T16:30:02.681Z,101606.53
2023-01-15T16:33:09.395Z,101589.44
2023-01-15T16:36:13.676Z,101583.13
2023-01-15T16:39:42.216Z,101625.53
2023-01-15T16:42:46.472Z,101619.69
2023-01-15T16:46:19.561Z,101604.66
2023-01-15T16:49:23.719Z,101624.72
2023-01-15T16:52:53.011Z,101611.38
2023-01-15T16:55:58.345Z,101599.69
2023-01-15T16:59:02.777Z,101629.34
2023-01-15T17:02:17.548Z,101612.72
2023-01-15T17:05:25.538Z,101632.56
2023-01-15T17:08:39.354Z,101639.00
2023-01-15T17:11:43.336Z,101637.19
2023-01-15T17:14:47.466Z,101611.78
2023-01-15T17:17:53.140Z,101629.91
2023-01-15T17:20:57.938Z,101596.78
2023-01-15T17:24:02.187Z,101636.59
2023-01-15T17:27:06.336Z,101628.19
2023-01-15T17:30:14.002Z,101614.16
2023-01-15T17:33:18.170Z,101594.50
2023-01-15T17:36:23.559Z,101609.81
2023-01-15T17:39:27.746Z,101617.25
2023-01-15T17:42:31.654Z,101627.72
2023-01-15T17:45:35.978Z,101631.81
2023-01-15T17:48:40.097Z,101614.28
2023-01-15T17:51:44.320Z,101603.94
2023-01-15T17:55:06.966Z,101619.25
2023-01-15T17:58:33.906Z,101613.41
2023-01-15T18:02:00.471Z,101616.53
2023-01-15T18:05:23.116Z,101617.06
2023-01-15T18:08:27.099Z,101543.50
2023-01-15T18:11:34.021Z,101594.66
2023-01-15T18:14:38.006Z,101590.91
2023-01-15T18:17:42.082Z,101551.66
2023-01-15T18:20:46.556Z,101595.09
2023-01-15T18:23:51.241Z,101600.94
2023-01-15T18:26:56.496Z,101605.63
2023-01-15T18:30:01.025Z,101579.25
2023-01-15T18:33:06.330Z,101590.63
2023-01-15T18:36:13.097Z,101582.41
2023-01-15T18:39:17.458Z,101580.56
2023-01-15T18:42:39.882Z,101574.25
2023-01-15T18:46:06.283Z,101573.34
2023-01-15T18:49:10.307Z,101571.13
2023-01-15T18:52:35.213Z,101579.22
2023-01-15T18:55:39.315Z,101568.94
2023-01-15T18:58:43.825Z,101571.06
2023-01-15T19:01:48.210Z,101576.38
2023-01-15T19:04:51.955Z,101578.16
2023-01-15T19:07:56.383Z,101567.81
2023-01-15T19:11:00.345Z,101557.47
2023-01-15T19:14:23.346Z,101555.38
2023-01-15T19:17:45.873Z,101547.59
2023-01-15T19:20:50.140Z,101556.81
2023-01-15T19:23:54.177Z,101586.19
2023-01-15T19:26:58.326Z,101579.06
2023-01-15T19:30:03.256Z,101579.81
2023-01-15T19:33:08.619Z,101590.66
2023-01-15T19:36:12.629Z,101587.06
2023-01-15T19:39:17.780Z,101565.09
2023-01-15T19:42:40.868Z,101571.88
2023-01-15T19:46:04.387Z,101586.31
2023-01-15T19:49:36.357Z,101587.56
2023-01-15T19:52:41.838Z,101581.34
2023-01-15T19:55:46.683Z,101569.47
2023-01-15T19:58:50.881Z,101579.34
2023-01-15T20:01:54.972Z,101587.38
2023-01-15T20:04:59.009Z,101568.81
2023-01-15T20:08:03.441Z,101568.00
2023-01-15T20:11:10.159Z,101574.03
2023-01-15T20:14:14.112Z,101579.16
2023-01-15T20:17:18.626Z,101517.47
2023-01-15T20:20:22.406Z,101599.66
2023-01-15T20:23:26.527Z,101586.44
2023-01-15T20:26:30.480Z,101564.94
2023-01-15T20:29:34.987Z,101572.50
2023-01-15T20:32:41.173Z,101590.91
2023-01-15T20:35:45.391Z,101516.97
2023-01-15T20:38:49.822Z,101579.28
2023-01-15T20:42:12.269Z,101593.16
2023-01-15T20:45:17.448Z,101578.06
2023-01-15T20:48:39.989Z,101566.81
2023-01-15T20:51:46.129Z,101577.38
2023-01-15T20:54:51.320Z,101546.50
2023-01-15T20:57:55.598Z,101607.31
2023-01-15T21:01:05.203Z,101610.53
2023-01-15T21:04:10.789Z,101601.50
2023-01-15T21:07:15.191Z,101596.09
2023-01-15T21:10:19.035Z,101605.03
2023-01-15T21:13:24.367Z,101597.94
2023-01-15T21:16:28.350Z,101588.13
2023-01-15T21:19:32.695Z,101585.03
2023-01-15T21:22:36.864Z,101576.38
2023-01-15T21:25:40.889Z,101590.06
2023-01-15T21:28:45.698Z,101604.19
2023-01-15T21:31:50.975Z,101592.34
2023-01-15T21:34:56.124Z,101609.22
2023-01-15T21:38:00.666Z,101604.56
2023-01-15T21:41:16.506Z,101617.72
2023-01-15T21:44:39.391Z,101597.53
2023-01-15T21:47:44.279Z,101593.38
2023-01-15T21:50:48.285Z,101601.03
2023-01-15T21:53:52.259Z,101593.53
2023-01-15T21:56:57.123Z,101626.03
2023-01-15T22:00:01.281Z,101630.50
2023-01-15T22:03:07.167Z,101588.00
2023-01-15T22:06:11.881Z,101633.28
2023-01-15T22:09:17.933Z,101637.34
2023-01-15T22:12:21.881Z,101607.69
2023-01-15T22:15:26.354Z,101607.84
2023-01-15T22:18:30.986Z,101613.44
2023-01-15T22:21:35.657Z,101599.13
2023-01-15T22:24:41.353Z,101637.66
2023-01-15T22:27:45.732Z,101638.34
2023-01-15T22:30:49.747Z,101607.63
2023-01-15T22:33:54.531Z,101629.44
2023-01-15T22:36:58.755Z,101632.66
2023-01-15T22:40:02.919Z,101646.56
2023-01-15T22:43:07.162Z,101644.84
2023-01-15T22:46:12.981Z,101642.09
2023-01-15T22:49:18.723Z,101626.34
2023-01-15T22:52:25.851Z,101633.53
2023-01-15T22:55:29.852Z,101642.06
2023-01-15T22:58:34.375Z,101619.19
2023-01-15T23:01:38.453Z,101655.97
2023-01-15T23:04:42.825Z,101614.44
2023-01-15T23:07:46.980Z,101659.78
2023-01-15T23:10:51.931Z,101636.88
2023-01-15T23:13:56.091Z,101656.78
2023-01-15T23:17:00.195Z,101650.13
2023-01-15T23:20:04.500Z,101661.88
2023-01-15T23:23:08.541Z,101646.34
2023-01-15T23:26:17.995Z,101644.13
2023-01-15T23:29:22.159Z,101631.63
2023-01-15T23:32:26.225Z,101603.22
2023-01-15T23:35:30.433Z,101635.97
2023-01-15T23:38:34.421Z,101663.94
2023-01-15T23:41:56.661Z,101663.00
2023-01-15T23:45:18.996Z,101673.63
2023-01-15T23:48:23.364Z,101659.06
2023-01-15T23:51:27.578Z,101670.75
2023-01-15T23:54:32.208Z,101647.06
2023-01-15T23:57:35.883Z,101669.50
